Time;durP1;ratioP1;P1;durP2;ratioP2;P2;SDS_P1;SDS_P2;PMS_P1;PMS_P2;Temp;Humidity;BMP_temperature;BMP_pressure;BME280_temperature;BME280_humidity;BME280_pressure;Samples;Min_cycle;Max_cycle;Signal;HPM_P1;HPM_P2
2021/04/12 00:01:59;;;;;;;6.72;4.43;;;3.00;99.90;;;;;;4949828;29;20192;-81
2021/04/12 00:04:36;;;;;;;5.75;3.40;;;3.00;99.90;;;;;;4928718;29;20175;-81
2021/04/12 00:07:08;;;;;;;7.05;3.92;;;2.90;99.90;;;;;;4920250;29;20177;-81
2021/04/12 00:09:47;;;;;;;9.63;4.68;;;2.90;99.90;;;;;;4941261;29;20192;-81
2021/04/12 00:12:39;;;;;;;8.85;4.45;;;3.00;99.90;;;;;;4923015;29;20271;-81
2021/04/12 00:15:16;;;;;;;10.90;4.35;;;3.00;99.90;;;;;;4919954;29;20284;-81
2021/04/12 00:17:47;;;;;;;9.82;4.93;;;3.00;99.90;;;;;;4950300;29;20262;-81
2021/04/12 00:20:51;;;;;;;6.38;3.80;;;2.90;99.90;;;;;;4939867;29;20194;-81
2021/04/12 00:23:47;;;;;;;6.60;3.75;;;2.90;99.90;;;;;;4936210;29;20180;-81
2021/04/12 00:26:24;;;;;;;6.97;3.85;;;2.90;99.90;;;;;;4949435;29;20235;-81
2021/04/12 00:29:05;;;;;;;5.65;3.65;;;2.90;99.90;;;;;;4934561;29;20567;-81
2021/04/12 00:32:00;;;;;;;7.75;4.07;;;2.90;99.90;;;;;;4919615;29;20184;-81
2021/04/12 00:34:37;;;;;;;4.15;3.55;;;2.80;99.90;;;;;;4934822;29;20295;-81
2021/04/12 00:37:16;;;;;;;6.70;3.53;;;2.90;99.90;;;;;;4919565;29;20206;-82
2021/04/12 00:40:24;;;;;;;7.15;3.47;;;2.90;99.90;;;;;;4935100;29;20216;-81
2021/04/12 00:43:06;;;;;;;7.97;4.00;;;3.00;99.90;;;;;;4935052;29;20594;-81
2021/04/12 00:45:38;;;;;;;4.57;3.50;;;3.00;99.90;;;;;;4934855;29;20637;-81
2021/04/12 00:48:42;;;;;;;5.43;4.30;;;3.00;99.90;;;;;;4903905;29;20187;-81
2021/04/12 00:51:54;;;;;;;5.97;3.20;;;2.90;99.90;;;;;;4917272;29;20204;-82
2021/04/12 00:54:44;;;;;;;4.07;2.72;;;2.90;99.90;;;;;;4891268;29;20204;-81
2021/04/12 00:57:32;;;;;;;5.75;3.22;;;2.90;99.90;;;;;;4919873;29;20200;-81
2021/04/12 01:00:08;;;;;;;5.25;2.50;;;2.80;99.90;;;;;;4929028;29;20220;-81
2021/04/12 01:02:43;;;;;;;5.35;3.15;;;3.00;99.90;;;;;;4938564;29;20180;-82
2021/04/12 01:05:50;;;;;;;6.75;2.90;;;2.80;99.90;;;;;;4922306;29;20173;-81
2021/04/12 01:08:37;;;;;;;4.38;3.00;;;2.80;99.90;;;;;;4939020;29;20593;-81
2021/04/12 01:11:27;;;;;;;6.63;3.60;;;2.60;99.90;;;;;;4955885;29;20175;-81
2021/04/12 01:14:29;;;;;;;6.53;4.25;;;2.90;99.90;;;;;;4939396;29;20517;-81
2021/04/12 01:17:06;;;;;;;6.10;3.50;;;2.90;99.90;;;;;;4939364;29;20195;-81
2021/04/12 01:20:16;;;;;;;6.18;3.85;;;2.80;99.90;;;;;;4941988;29;20648;-81
2021/04/12 01:23:22;;;;;;;6.25;3.42;;;2.80;99.90;;;;;;4945877;29;20185;-81
2021/04/12 01:26:09;;;;;;;9.38;4.10;;;2.80;99.90;;;;;;4945563;29;20223;-81
2021/04/12 01:29:26;;;;;;;6.95;3.40;;;2.60;99.90;;;;;;4955966;29;20206;-81
2021/04/12 01:32:34;;;;;;;7.78;3.05;;;2.80;99.90;;;;;;4925368;29;20183;-81
2021/04/12 01:35:26;;;;;;;6.95;3.85;;;2.60;99.90;;;;;;4925755;29;20284;-81
2021/04/12 01:38:07;;;;;;;8.75;4.10;;;2.60;99.90;;;;;;4931965;29;20822;-81
2021/04/12 01:40:50;;;;;;;6.65;3.42;;;2.80;99.90;;;;;;4931277;29;20187;-81
2021/04/12 01:43:40;;;;;;;5.32;3.35;;;2.50;99.90;;;;;;4926531;29;20184;-81
2021/04/12 01:46:26;;;;;;;5.55;3.80;;;2.20;99.90;;;;;;4937804;29;20218;-81
2021/04/12 01:48:58;;;;;;;5.25;3.63;;;2.50;99.90;;;;;;4921839;29;20177;-81
2021/04/12 01:51:50;;;;;;;8.57;3.88;;;2.60;99.90;;;;;;4937229;29;20223;-81
2021/04/12 01:54:37;;;;;;;7.55;3.90;;;2.60;99.90;;;;;;4922664;29;20215;-82
2021/04/12 01:57:41;;;;;;;5.88;4.32;;;2.70;99.90;;;;;;4939161;29;20263;-81
2021/04/12 02:00:51;;;;;;;7.55;4.10;;;2.60;99.90;;;;;;4941028;29;20195;-82
2021/04/12 02:03:38;;;;;;;7.03;3.53;;;2.40;99.90;;;;;;4926302;29;20626;-81
2021/04/12 02:06:29;;;;;;;6.28;3.40;;;2.50;99.90;;;;;;4939395;29;20255;-81
2021/04/12 02:09:07;;;;;;;5.38;3.92;;;2.30;99.90;;;;;;4940899;29;20208;-81
2021/04/12 02:11:35;;;;;;;7.15;4.65;;;2.30;99.90;;;;;;4948128;29;20236;-81
2021/04/12 02:14:19;;;;;;;9.07;5.85;;;2.30;99.90;;;;;;4946383;29;20188;-81
2021/04/12 02:17:21;;;;;;;8.95;5.25;;;2.20;99.90;;;;;;4946140;29;20196;-81
2021/04/12 02:20:04;;;;;;;10.73;5.38;;;2.20;99.90;;;;;;4937437;29;20204;-81
2021/04/12 02:22:59;;;;;;;10.57;5.50;;;1.90;99.90;;;;;;4933748;29;20231;-81
2021/04/12 02:25:52;;;;;;;7.32;5.00;;;2.30;99.90;;;;;;4930230;29;20220;-81
2021/04/12 02:28:32;;;;;;;8.40;5.53;;;2.10;99.90;;;;;;4939964;29;20201;-81
2021/04/12 02:31:29;;;;;;;9.27;5.28;;;2.40;99.90;;;;;;4955184;29;20594;-81
2021/04/12 02:33:58;;;;;;;8.52;4.97;;;2.20;99.90;;;;;;4943899;29;20191;-81
2021/04/12 02:37:00;;;;;;;9.00;5.93;;;1.70;99.90;;;;;;4937855;29;20215;-81
2021/04/12 02:39:56;;;;;;;12.20;5.95;;;2.10;99.90;;;;;;4934929;29;20250;-81
2021/04/12 02:42:59;;;;;;;10.75;5.00;;;2.20;99.90;;;;;;4919917;29;20216;-81
2021/04/12 02:45:45;;;;;;;8.45;4.85;;;2.20;99.90;;;;;;4931845;29;20198;-81
2021/04/12 02:48:27;;;;;;;10.15;5.45;;;2.00;99.90;;;;;;4937916;29;20266;-81
2021/04/12 02:51:03;;;;;;;8.52;5.35;;;2.10;99.90;;;;;;4934072;29;20188;-81
2021/04/12 02:53:54;;;;;;;10.57;6.13;;;2.00;99.90;;;;;;4937674;29;20267;-81
2021/04/12 02:56:23;;;;;;;8.13;5.72;;;1.90;99.90;;;;;;4937029;29;20546;-80
2021/04/12 02:59:05;;;;;;;8.70;5.10;;;2.00;99.90;;;;;;4937293;29;20530;-81
2021/04/12 03:02:10;;;;;;;7.45;5.55;;;1.90;99.90;;;;;;4937090;29;20190;-81
2021/04/12 03:04:57;;;;;;;10.05;5.22;;;2.00;99.90;;;;;;4936685;29;20206;-81
2021/04/12 03:07:35;;;;;;;11.45;5.30;;;1.90;99.90;;;;;;4920403;29;20514;-81
2021/04/12 03:10:22;;;;;;;7.32;4.53;;;2.00;99.90;;;;;;4937195;29;20196;-82
2021/04/12 03:13:14;;;;;;;13.05;5.00;;;1.80;99.90;;;;;;4936894;29;20637;-81
2021/04/12 03:15:43;;;;;;;9.23;4.82;;;1.70;99.90;;;;;;4936914;29;20219;-81
2021/04/12 03:18:27;;;;;;;11.60;6.00;;;1.70;99.90;;;;;;4936187;29;20238;-81
2021/04/12 03:21:32;;;;;;;9.60;5.75;;;2.10;99.90;;;;;;4936886;29;20196;-81
2021/04/12 03:24:23;;;;;;;7.90;5.53;;;1.80;99.90;;;;;;4935897;29;20634;-81
2021/04/12 03:27:28;;;;;;;13.75;5.95;;;1.90;99.90;;;;;;4936764;29;20228;-81
2021/04/12 03:30:15;;;;;;;7.50;5.35;;;1.80;99.90;;;;;;4943913;29;20284;-81
2021/04/12 03:32:58;;;;;;;7.90;5.55;;;1.90;99.90;;;;;;4935988;29;20242;-81
2021/04/12 03:35:31;;;;;;;11.65;5.80;;;1.70;99.90;;;;;;4929081;29;20282;-81
2021/04/12 03:38:21;;;;;;;7.13;5.32;;;1.30;99.90;;;;;;4936518;29;20178;-81
2021/04/12 03:41:13;;;;;;;10.23;6.35;;;1.80;99.90;;;;;;4937140;29;20495;-81
2021/04/12 03:43:56;;;;;;;9.90;5.88;;;1.30;99.90;;;;;;4916563;29;20203;-81
2021/04/12 03:46:55;;;;;;;7.22;4.63;;;1.60;99.90;;;;;;4948790;29;20196;-81
2021/04/12 03:49:45;;;;;;;7.55;5.00;;;1.50;99.90;;;;;;4926255;29;20232;-81
2021/04/12 03:52:51;;;;;;;7.60;5.80;;;1.60;99.90;;;;;;4934430;29;20569;-81
2021/04/12 03:55:42;;;;;;;12.57;5.75;;;1.70;99.90;;;;;;4938913;29;20207;-81
2021/04/12 03:58:37;;;;;;;8.98;6.38;;;1.70;99.90;;;;;;4927544;29;20190;-80
2021/04/12 04:01:36;;;;;;;7.22;5.53;;;1.40;99.90;;;;;;4920252;29;20184;-81
2021/04/12 04:04:19;;;;;;;10.13;5.72;;;1.70;99.90;;;;;;4939951;29;20202;-81
2021/04/12 04:07:06;;;;;;;8.27;5.88;;;1.50;99.90;;;;;;4936142;29;20718;-81
2021/04/12 04:09:54;;;;;;;11.00;6.00;;;1.60;99.90;;;;;;4936753;29;20184;-81
2021/04/12 04:12:43;;;;;;;7.40;5.80;;;1.60;99.90;;;;;;4936165;29;20270;-81
2021/04/12 04:15:35;;;;;;;7.57;4.63;;;1.50;99.90;;;;;;4936151;29;20195;-81
2021/04/12 04:18:23;;;;;;;10.40;5.65;;;1.70;99.90;;;;;;4919685;29;20175;-81
2021/04/12 04:20:49;;;;;;;7.78;5.40;;;1.60;99.90;;;;;;4919636;29;20279;-81
2021/04/12 04:23:18;;;;;;;6.60;5.30;;;1.20;99.90;;;;;;4935965;29;20267;-81
2021/04/12 04:26:18;;;;;;;8.80;5.80;;;1.50;99.90;;;;;;4941983;29;20477;-81
2021/04/12 04:29:18;;;;;;;10.80;6.60;;;1.60;99.90;;;;;;4922950;29;20208;-81
2021/04/12 04:32:11;;;;;;;8.07;6.55;;;1.50;99.90;;;;;;4916291;29;20214;-81
2021/04/12 04:35:16;;;;;;;11.38;6.70;;;1.60;99.90;;;;;;4900802;29;20655;-81
2021/04/12 04:37:53;;;;;;;9.25;6.10;;;1.40;99.90;;;;;;4921235;29;20181;-81
2021/04/12 04:40:45;;;;;;;12.98;6.20;;;1.60;99.90;;;;;;4920115;29;20711;-81
2021/04/12 04:43:55;;;;;;;10.43;7.60;;;1.50;99.90;;;;;;4948935;29;20785;-81
2021/04/12 04:46:41;;;;;;;10.70;6.90;;;1.30;99.90;;;;;;4949449;29;20678;-82
2021/04/12 04:49:37;;;;;;;13.80;7.85;;;1.50;99.90;;;;;;4958464;29;20198;-81
2021/04/12 04:52:44;;;;;;;9.05;6.15;;;1.30;99.90;;;;;;4946940;29;20623;-82
2021/04/12 04:55:47;;;;;;;11.27;6.85;;;1.40;99.90;;;;;;4957073;29;20203;-80
2021/04/12 04:58:36;;;;;;;12.38;7.40;;;1.50;99.90;;;;;;4955142;29;20249;-80
2021/04/12 05:01:22;;;;;;;13.07;7.32;;;1.40;99.90;;;;;;4939070;29;20563;-80
2021/04/12 05:04:05;;;;;;;13.50;7.45;;;1.50;99.90;;;;;;4946511;29;20182;-80
2021/04/12 05:06:37;;;;;;;12.30;7.72;;;1.50;99.90;;;;;;4891735;29;20270;-80
2021/04/12 05:09:24;;;;;;;13.32;7.88;;;1.60;99.90;;;;;;4922948;29;20193;-81
2021/04/12 05:12:31;;;;;;;11.38;8.23;;;1.40;99.90;;;;;;4939267;29;20199;-81
2021/04/12 05:15:06;;;;;;;12.15;8.57;;;1.40;99.90;;;;;;4903213;29;20277;-80
2021/04/12 05:17:56;;;;;;;11.70;8.15;;;1.40;99.90;;;;;;4925293;29;20180;-80
2021/04/12 05:20:44;;;;;;;12.80;8.52;;;1.50;99.90;;;;;;4939269;29;20187;-80
2021/04/12 05:23:49;;;;;;;10.52;8.30;;;1.80;99.90;;;;;;4939082;29;20624;-80
2021/04/12 05:26:52;;;;;;;12.70;8.23;;;1.90;99.90;;;;;;4938822;29;20239;-81
2021/04/12 05:29:42;;;;;;;11.32;6.97;;;1.70;99.90;;;;;;4937772;29;20195;-81
2021/04/12 05:32:16;;;;;;;12.98;7.72;;;1.90;99.90;;;;;;4948208;29;20284;-81
2021/04/12 05:34:50;;;;;;;13.50;7.35;;;2.10;99.90;;;;;;4941794;29;20307;-79
2021/04/12 05:37:54;;;;;;;10.18;7.32;;;2.20;99.90;;;;;;4922146;29;20215;-79
2021/04/12 05:40:47;;;;;;;11.85;7.50;;;2.20;99.90;;;;;;4923534;29;20198;-79
2021/04/12 05:43:27;;;;;;;12.18;7.30;;;2.30;99.90;;;;;;4919768;29;20169;-79
2021/04/12 05:46:31;;;;;;;9.45;6.40;;;2.30;99.90;;;;;;4921171;29;20251;-79
2021/04/12 05:49:15;;;;;;;10.80;7.43;;;2.50;99.90;;;;;;4937454;29;20191;-79
2021/04/12 05:52:27;;;;;;;9.88;8.02;;;2.50;99.90;;;;;;4930807;29;20670;-79
2021/04/12 05:55:20;;;;;;;8.88;6.57;;;2.60;99.90;;;;;;4936663;29;20285;-81
2021/04/12 05:58:10;;;;;;;12.57;8.02;;;2.70;99.90;;;;;;4938231;29;20316;-81
2021/04/12 06:01:00;;;;;;;15.85;7.20;;;2.80;99.90;;;;;;4921836;29;20212;-81
2021/04/12 06:03:35;;;;;;;10.60;7.53;;;2.80;99.90;;;;;;4921361;29;20191;-81
2021/04/12 06:06:29;;;;;;;12.65;6.90;;;2.90;99.90;;;;;;4921489;29;20192;-81
2021/04/12 06:09:06;;;;;;;13.45;7.78;;;2.90;99.90;;;;;;4921417;29;20339;-81
2021/04/12 06:12:02;;;;;;;9.45;6.47;;;3.00;99.90;;;;;;4920310;29;20212;-81
2021/04/12 06:14:47;;;;;;;9.82;6.90;;;3.10;99.90;;;;;;4936586;29;20180;-80
2021/04/12 06:17:42;;;;;;;9.93;7.05;;;3.20;99.90;;;;;;4916826;29;20196;-80
2021/04/12 06:20:45;;;;;;;11.65;6.90;;;3.00;99.90;;;;;;4927337;29;20177;-80
2021/04/12 06:23:46;;;;;;;8.98;6.70;;;3.10;99.90;;;;;;4920133;29;20173;-84
2021/04/12 06:26:23;;;;;;;11.52;7.93;;;3.20;99.90;;;;;;4938578;29;20262;-82
2021/04/12 06:29:37;;;;;;;11.77;7.40;;;3.20;99.90;;;;;;4953196;29;20180;-82
2021/04/12 06:32:18;;;;;;;8.45;6.72;;;3.30;99.90;;;;;;4909080;29;20215;-82
2021/04/12 06:35:29;;;;;;;11.25;7.10;;;3.40;99.90;;;;;;4923885;29;20211;-82
2021/04/12 06:38:39;;;;;;;14.55;8.00;;;3.40;99.90;;;;;;4938008;29;20763;-83
2021/04/12 06:41:42;;;;;;;10.38;7.25;;;3.60;99.90;;;;;;4928417;29;20516;-80
2021/04/12 06:44:27;;;;;;;8.00;6.90;;;3.70;99.90;;;;;;4942184;29;20233;-81
2021/04/12 06:47:24;;;;;;;12.07;7.65;;;3.80;99.90;;;;;;4919293;29;20594;-83
2021/04/12 06:50:27;;;;;;;9.80;7.05;;;3.80;99.90;;;;;;4935330;29;20187;-80
2021/04/12 06:53:20;;;;;;;10.48;7.40;;;3.70;99.90;;;;;;4952238;29;20607;-80
2021/04/12 06:55:53;;;;;;;10.65;7.60;;;3.70;99.90;;;;;;4939714;29;20303;-83
2021/04/12 06:58:55;;;;;;;7.15;6.03;;;3.70;99.90;;;;;;4936153;29;20188;-81
2021/04/12 07:01:45;;;;;;;8.07;6.32;;;3.60;99.90;;;;;;4919223;29;20612;-81
2021/04/12 07:04:30;;;;;;;10.27;7.63;;;3.60;99.90;;;;;;4918953;29;20189;-81
2021/04/12 07:07:30;;;;;;;13.65;7.20;;;3.60;99.90;;;;;;4916224;29;20169;-81
2021/04/12 07:10:17;;;;;;;8.75;6.95;;;3.70;99.90;;;;;;4918826;29;20747;-80
2021/04/12 07:13:24;;;;;;;8.15;7.10;;;3.70;99.90;;;;;;4919169;29;20666;-80
2021/04/12 07:16:27;;;;;;;12.07;8.35;;;3.80;99.90;;;;;;4918713;29;20220;-80
2021/04/12 07:19:10;;;;;;;15.30;10.23;;;3.90;99.90;;;;;;4903398;29;20239;-81
2021/04/12 07:22:07;;;;;;;10.10;7.78;;;3.90;99.90;;;;;;4919171;29;20176;-80
2021/04/12 07:24:53;;;;;;;10.40;7.68;;;4.00;99.90;;;;;;4900179;29;20252;-79
2021/04/12 07:27:46;;;;;;;12.63;8.07;;;3.90;99.90;;;;;;4917673;29;20737;-80
2021/04/12 07:30:31;;;;;;;13.65;8.63;;;4.00;99.90;;;;;;4916266;29;20189;-82
2021/04/12 07:33:34;;;;;;;11.23;9.35;;;4.10;99.90;;;;;;4902264;29;20658;-81
2021/04/12 07:36:11;;;;;;;17.38;10.77;;;4.30;99.90;;;;;;4916325;29;20225;-81
2021/04/12 07:38:56;;;;;;;11.90;8.88;;;4.30;99.90;;;;;;4916189;29;20195;-81
2021/04/12 07:42:02;;;;;;;11.88;8.27;;;4.30;99.90;;;;;;4915498;29;20185;-80
2021/04/12 07:44:49;;;;;;;10.02;8.30;;;4.50;99.90;;;;;;4865500;29;20214;-80
2021/04/12 07:47:51;;;;;;;10.60;7.85;;;4.70;99.90;;;;;;4877246;29;20184;-81
2021/04/12 07:51:10;;;;;;;10.35;8.27;;;4.80;99.90;;;;;;4916235;29;20191;-80
2021/04/12 07:54:11;;;;;;;9.98;8.20;;;5.00;99.90;;;;;;4916145;29;20184;-80
2021/04/12 07:57:16;;;;;;;18.48;7.60;;;5.10;99.90;;;;;;4900880;29;20221;-80
2021/04/12 08:00:12;;;;;;;11.02;8.05;;;5.10;99.90;;;;;;4915790;29;20260;-81
2021/04/12 08:03:12;;;;;;;8.00;7.20;;;5.20;99.90;;;;;;4900177;29;20196;-81
2021/04/12 08:06:01;;;;;;;10.88;6.38;;;5.40;99.90;;;;;;4899655;29;20588;-83
2021/04/12 08:09:12;;;;;;;9.77;6.85;;;5.70;99.90;;;;;;4916250;29;20173;-83
2021/04/12 08:12:14;;;;;;;8.65;6.05;;;5.60;99.90;;;;;;4915264;29;20291;-81
2021/04/12 08:15:17;;;;;;;10.60;7.18;;;5.60;99.90;;;;;;4883561;29;20292;-80
2021/04/12 08:18:32;;;;;;;7.85;5.72;;;5.70;99.90;;;;;;4888583;29;20220;-81
2021/04/12 08:21:09;;;;;;;8.38;6.88;;;5.90;99.90;;;;;;4843135;29;20325;-78
2021/04/12 08:24:13;;;;;;;9.48;5.90;;;6.00;99.90;;;;;;4900545;29;20181;-78
2021/04/12 08:26:57;;;;;;;8.48;6.43;;;6.10;99.90;;;;;;4911807;29;20665;-79
2021/04/12 08:30:04;;;;;;;6.10;5.20;;;6.20;99.90;;;;;;4921964;29;20206;-79
2021/04/12 08:32:53;;;;;;;5.75;4.70;;;6.40;99.90;;;;;;4879501;29;20194;-79
2021/04/12 08:35:25;;;;;;;6.63;5.95;;;6.50;99.90;;;;;;4861054;29;20211;-79
2021/04/12 08:38:23;;;;;;;4.32;3.92;;;6.60;99.90;;;;;;4864127;29;20205;-80
2021/04/12 08:41:17;;;;;;;5.47;4.72;;;6.60;99.90;;;;;;4862580;29;20164;-80
2021/04/12 08:44:40;;;;;;;9.88;4.70;;;6.70;99.90;;;;;;4866409;29;20217;-79
2021/04/12 08:47:36;;;;;;;5.18;4.30;;;6.90;99.90;;;;;;4861369;29;20483;-79
2021/04/12 08:50:15;;;;;;;7.43;4.85;;;7.00;99.90;;;;;;4879704;29;20207;-79
2021/04/12 08:53:48;;;;;;;5.90;4.82;;;7.10;99.90;;;;;;4879559;29;20175;-80
2021/04/12 08:56:35;;;;;;;4.45;4.05;;;7.20;99.90;;;;;;4790326;29;20319;-79
2021/04/12 08:59:10;;;;;;;11.18;4.55;;;7.10;99.90;;;;;;4805763;29;20839;-79
2021/04/12 09:05:15;;;;;;;8.50;4.77;;;7.20;99.90;;;;;;4836774;29;20191;-79
2021/04/12 09:08:10;;;;;;;5.15;4.65;;;7.20;99.90;;;;;;4841796;29;20438;-79
2021/04/12 09:11:06;;;;;;;5.65;4.18;;;7.10;99.90;;;;;;4842083;29;20569;-81
2021/04/12 09:14:16;;;;;;;10.80;3.60;;;7.10;99.90;;;;;;4827767;29;20279;-82
2021/04/12 09:17:08;;;;;;;5.90;4.30;;;7.00;99.90;;;;;;4841719;29;20538;-80
2021/04/12 09:19:55;;;;;;;4.10;3.25;;;7.20;99.90;;;;;;4826688;29;20205;-81
2021/04/12 09:23:03;;;;;;;4.75;3.45;;;7.20;99.90;;;;;;4842388;29;20168;-80
2021/04/12 09:26:02;;;;;;;4.10;3.42;;;7.30;99.90;;;;;;4853585;29;20211;-82
2021/04/12 09:28:54;;;;;;;5.05;3.60;;;7.30;99.90;;;;;;4919983;29;20224;-82
2021/04/12 09:31:58;;;;;;;4.00;3.58;;;7.20;99.90;;;;;;4937519;29;20178;-83
2021/04/12 09:34:41;;;;;;;4.18;3.70;;;7.30;99.90;;;;;;4937284;29;20197;-82
2021/04/12 09:37:31;;;;;;;3.55;3.22;;;7.30;99.90;;;;;;4937571;29;20200;-81
2021/04/12 09:43:44;;;;;;;4.67;4.33;;;7.70;99.90;;;;;;4937182;29;20204;-80
2021/04/12 09:46:49;;;;;;;4.80;4.50;;;8.20;99.90;;;;;;4937296;29;20416;-81
2021/04/12 09:49:55;;;;;;;4.15;3.85;;;8.40;99.90;;;;;;4932485;29;20418;-80
2021/04/12 09:52:47;;;;;;;5.88;4.32;;;8.40;98.00;;;;;;4926915;29;20206;-81
2021/04/12 09:55:31;;;;;;;5.60;4.60;;;8.40;98.50;;;;;;4905541;29;20208;-79
2021/04/12 09:58:31;;;;;;;4.70;3.70;;;8.50;99.00;;;;;;4936641;29;20431;-80
2021/04/12 10:01:19;;;;;;;6.10;5.10;;;8.90;99.30;;;;;;4937495;29;20427;-81
2021/04/12 10:03:52;;;;;;;5.10;4.80;;;9.20;98.40;;;;;;4920701;29;20440;-79
2021/04/12 10:06:52;;;;;;;4.50;4.10;;;9.60;95.00;;;;;;4936971;29;20747;-80
2021/04/12 10:09:46;;;;;;;6.50;4.60;;;9.70;95.10;;;;;;4935407;29;20772;-81
2021/04/12 10:12:30;;;;;;;5.40;5.10;;;9.70;90.70;;;;;;4919912;29;20523;-81
2021/04/12 10:15:27;;;;;;;5.33;4.97;;;9.60;91.90;;;;;;4904680;29;20945;-80
2021/04/12 10:18:03;;;;;;;6.27;5.97;;;9.90;90.40;;;;;;4936618;29;20919;-81
2021/04/12 10:20:42;;;;;;;5.83;5.37;;;9.70;87.90;;;;;;4935607;29;20533;-81
2021/04/12 10:23:25;;;;;;;6.17;5.67;;;9.50;90.40;;;;;;4936467;29;20418;-81
2021/04/12 10:25:58;;;;;;;5.50;5.10;;;9.30;92.60;;;;;;4936566;29;20428;-81
2021/04/12 10:28:35;;;;;;;4.40;4.10;;;9.20;91.50;;;;;;4936207;29;20529;-80
2021/04/12 10:31:14;;;;;;;6.00;5.50;;;9.00;91.10;;;;;;4936609;29;20864;-80
2021/04/12 10:33:57;;;;;;;5.63;5.33;;;9.00;89.60;;;;;;4942615;29;20441;-79
2021/04/12 10:36:31;;;;;;;5.27;4.93;;;8.90;90.30;;;;;;4932775;29;20648;-79
2021/04/12 10:39:37;;;;;;;4.63;4.23;;;8.90;90.50;;;;;;4935747;29;20554;-83
2021/04/12 10:42:17;;;;;;;4.07;3.87;;;9.00;93.50;;;;;;4936385;29;20426;-84
2021/04/12 10:45:13;;;;;;;4.07;3.70;;;8.40;99.90;;;;;;4944455;29;20491;-83
2021/04/12 10:48:05;;;;;;;4.87;3.60;;;7.60;99.90;;;;;;4919802;29;20445;-81
2021/04/12 10:50:36;;;;;;;3.35;3.05;;;7.10;99.90;;;;;;4930345;29;20511;-83
2021/04/12 10:53:49;;;;;;;3.40;3.08;;;6.60;99.90;;;;;;4934730;29;20275;-80
2021/04/12 10:56:32;;;;;;;2.30;2.10;;;6.00;99.90;;;;;;4917988;29;20751;-80
2021/04/12 10:59:32;;;;;;;2.38;2.17;;;5.40;99.90;;;;;;4928677;29;20559;-82
2021/04/12 11:02:24;;;;;;;2.10;1.90;;;5.00;99.90;;;;;;4938819;29;20605;-82
2021/04/12 11:04:55;;;;;;;2.78;2.53;;;4.60;99.90;;;;;;4939016;29;20198;-81
2021/04/12 11:08:09;;;;;;;2.70;2.08;;;4.40;99.90;;;;;;4920993;29;20195;-81
2021/04/12 11:11:14;;;;;;;4.05;1.90;;;4.10;99.90;;;;;;4922287;29;20187;-81
2021/04/12 11:13:55;;;;;;;2.60;2.25;;;3.80;99.90;;;;;;4897779;29;20196;-79
2021/04/12 11:16:45;;;;;;;2.80;2.25;;;3.50;99.90;;;;;;4938883;29;20200;-79
2021/04/12 11:19:34;;;;;;;2.88;2.58;;;3.60;99.90;;;;;;4918974;29;20267;-82
2021/04/12 11:22:12;;;;;;;6.13;4.38;;;3.70;99.90;;;;;;4917531;29;20174;-82
2021/04/12 11:24:58;;;;;;;7.70;5.40;;;3.80;99.90;;;;;;4934908;29;20199;-81
2021/04/12 11:27:43;;;;;;;6.13;4.82;;;4.00;99.90;;;;;;4942681;29;20235;-82
2021/04/12 11:30:28;;;;;;;6.85;4.38;;;4.30;99.90;;;;;;4903003;29;20181;-82
2021/04/12 11:33:27;;;;;;;6.30;3.45;;;4.40;99.90;;;;;;4916557;29;20279;-82
2021/04/12 11:36:05;;;;;;;4.30;3.30;;;4.70;99.90;;;;;;4926503;29;20188;-83
2021/04/12 11:38:40;;;;;;;2.63;2.17;;;5.00;99.90;;;;;;4922542;29;20196;-83
2021/04/12 11:41:35;;;;;;;4.78;2.90;;;5.20;99.90;;;;;;4918476;29;20180;-82
2021/04/12 11:44:16;;;;;;;4.82;2.90;;;5.50;99.90;;;;;;4927958;29;20201;-83
2021/04/12 11:47:22;;;;;;;3.30;2.30;;;6.00;99.90;;;;;;4953884;29;20263;-81
2021/04/12 11:50:04;;;;;;;5.05;2.50;;;6.80;99.90;;;;;;4895755;29;20196;-82
2021/04/12 11:53:06;;;;;;;2.53;2.33;;;7.10;99.90;;;;;;4933808;29;20200;-82
2021/04/12 11:56:10;;;;;;;3.42;2.10;;;7.20;99.90;;;;;;4928317;29;20533;-82
2021/04/12 11:58:56;;;;;;;2.73;2.40;;;7.50;99.90;;;;;;4941320;29;20210;-79
2021/04/12 12:01:57;;;;;;;5.37;4.23;;;8.10;99.90;;;;;;4927076;29;20504;-81
2021/04/12 12:04:37;;;;;;;5.47;4.37;;;8.60;99.90;;;;;;4908010;29;20483;-80
2021/04/12 12:07:32;;;;;;;6.93;5.50;;;9.10;99.90;;;;;;4919120;29;21108;-80
2021/04/12 12:10:34;;;;;;;6.17;5.60;;;9.30;99.90;;;;;;4953855;29;20441;-80
2021/04/12 12:13:24;;;;;;;11.30;5.80;;;9.60;99.90;;;;;;4935817;29;20533;-81
2021/04/12 12:16:09;;;;;;;6.80;6.03;;;10.00;99.90;;;;;;4925132;29;20479;-80
2021/04/12 12:18:45;;;;;;;7.23;6.47;;;10.20;99.90;;;;;;4902479;29;20857;-80
2021/04/12 12:21:21;;;;;;;7.97;7.33;;;10.40;98.10;;;;;;4945933;29;20446;-80
2021/04/12 12:24:05;;;;;;;10.27;7.10;;;10.60;97.90;;;;;;4954818;29;20399;-80
2021/04/12 12:26:58;;;;;;;7.80;7.10;;;10.40;94.00;;;;;;4952554;29;20829;-80
2021/04/12 12:29:44;;;;;;;7.37;6.60;;;10.00;96.30;;;;;;4954230;29;20435;-80
2021/04/12 12:32:15;;;;;;;7.00;6.40;;;9.70;96.70;;;;;;4923238;29;20423;-80
2021/04/12 12:34:57;;;;;;;6.70;6.10;;;9.90;99.90;;;;;;4935126;29;20400;-80
2021/04/12 12:37:51;;;;;;;6.17;5.77;;;10.50;99.50;;;;;;4934542;29;20510;-85
2021/04/12 12:40:23;;;;;;;7.50;6.90;;;10.80;96.10;;;;;;4952376;29;20423;-84
2021/04/12 12:43:00;;;;;;;6.47;5.87;;;10.80;94.90;;;;;;4937534;29;20422;-84
2021/04/12 12:45:37;;;;;;;7.57;7.00;;;10.80;95.70;;;;;;4930460;29;20436;-81
2021/04/12 12:48:24;;;;;;;7.40;6.83;;;10.50;92.90;;;;;;4936117;29;20482;-81
2021/04/12 12:50:57;;;;;;;5.57;5.17;;;10.10;94.20;;;;;;4940445;29;20812;-81
2021/04/12 12:53:28;;;;;;;5.60;5.30;;;9.50;96.50;;;;;;4927398;29;20406;-82
2021/04/12 12:56:13;;;;;;;5.27;4.80;;;8.50;99.80;;;;;;4935109;29;20552;-81
2021/04/12 12:59:01;;;;;;;4.83;4.53;;;7.80;99.90;;;;;;4933626;29;20534;-80
2021/04/12 13:01:42;;;;;;;3.63;3.33;;;7.20;99.90;;;;;;4933906;29;20432;-81
2021/04/12 13:04:20;;;;;;;4.07;3.17;;;6.70;99.90;;;;;;4937397;29;20195;-81
2021/04/12 13:06:52;;;;;;;3.30;2.90;;;6.00;99.90;;;;;;4938463;29;20208;-81
2021/04/12 13:09:39;;;;;;;4.82;3.30;;;5.50;99.90;;;;;;4918587;29;20259;-81
2021/04/12 13:12:12;;;;;;;4.25;2.97;;;5.20;99.90;;;;;;4935398;29;20571;-81
2021/04/12 13:14:49;;;;;;;3.13;2.83;;;5.00;99.90;;;;;;4937527;29;20283;-79
2021/04/12 13:17:39;;;;;;;5.50;3.60;;;5.00;99.90;;;;;;4938360;29;20210;-80
2021/04/12 13:20:23;;;;;;;5.45;3.10;;;5.50;99.90;;;;;;4937172;29;20180;-80
2021/04/12 13:23:00;;;;;;;3.33;3.03;;;6.20;99.90;;;;;;4938353;29;20674;-80
2021/04/12 13:25:47;;;;;;;4.78;2.80;;;7.00;99.90;;;;;;4937853;29;20198;-80
2021/04/12 13:28:18;;;;;;;3.30;3.00;;;7.50;99.90;;;;;;4937979;29;20817;-81
2021/04/12 13:31:00;;;;;;;3.47;3.23;;;8.20;99.90;;;;;;4921301;29;20438;-79
2021/04/12 13:34:07;;;;;;;3.13;2.83;;;8.60;99.90;;;;;;4921056;29;20831;-80
2021/04/12 13:36:39;;;;;;;2.70;2.50;;;8.90;99.90;;;;;;4904701;29;20601;-82
2021/04/12 13:39:16;;;;;;;4.97;3.20;;;9.00;99.90;;;;;;4936573;29;20434;-83
2021/04/12 13:41:48;;;;;;;3.70;3.40;;;9.10;99.90;;;;;;4943194;29;20440;-82
2021/04/12 13:44:36;;;;;;;3.37;3.07;;;9.20;99.90;;;;;;4922685;29;20526;-85
2021/04/12 13:47:18;;;;;;;3.93;3.63;;;9.30;99.90;;;;;;4928229;29;20431;-84
2021/04/12 13:50:14;;;;;;;3.40;3.10;;;9.40;99.90;;;;;;4937565;29;20429;-81
2021/04/12 13:52:47;;;;;;;4.13;3.83;;;9.60;99.90;;;;;;4951198;29;20421;-80
2021/04/12 13:55:20;;;;;;;3.10;2.90;;;10.10;99.90;;;;;;4924411;29;20527;-80
2021/04/12 13:57:56;;;;;;;5.80;5.30;;;10.50;99.90;;;;;;4937874;29;20538;-80
2021/04/12 14:00:32;;;;;;;5.63;5.13;;;10.80;99.00;;;;;;4889593;29;20483;-80
2021/04/12 14:03:13;;;;;;;4.23;3.93;;;10.50;99.90;;;;;;4903199;29;20423;-79
2021/04/12 14:05:52;;;;;;;5.03;4.63;;;10.10;99.50;;;;;;4938284;29;20924;-79
2021/04/12 14:08:24;;;;;;;4.47;4.17;;;9.70;99.90;;;;;;4940130;29;20431;-80
2021/04/12 14:11:03;;;;;;;5.00;4.70;;;9.10;99.90;;;;;;4938533;29;20411;-80
2021/04/12 14:13:39;;;;;;;4.87;4.43;;;8.80;99.40;;;;;;4913962;29;20500;-79
2021/04/12 14:16:10;;;;;;;4.43;4.23;;;8.70;99.90;;;;;;4934919;29;20485;-79
2021/04/12 14:18:50;;;;;;;6.03;5.63;;;9.00;99.90;;;;;;4929740;29;20436;-80
2021/04/12 14:21:30;;;;;;;6.33;5.93;;;9.60;99.70;;;;;;4926490;29;20455;-80
2021/04/12 14:23:58;;;;;;;6.30;5.87;;;10.10;95.30;;;;;;4920891;29;20423;-80
2021/04/12 14:26:29;;;;;;;5.30;5.00;;;10.40;94.30;;;;;;4957319;29;20521;-80
2021/04/12 14:29:01;;;;;;;5.80;5.50;;;10.90;93.20;;;;;;4922302;29;20472;-80
2021/04/12 14:31:33;;;;;;;5.70;5.40;;;11.50;92.90;;;;;;4918120;29;20406;-83
2021/04/12 14:34:26;;;;;;;6.50;6.20;;;12.10;91.80;;;;;;4943285;29;20477;-82
2021/04/12 14:40:25;;;;;;;6.17;5.87;;;13.30;83.10;;;;;;4954757;29;20412;-83
2021/04/12 14:43:25;;;;;;;6.60;6.23;;;13.80;81.70;;;;;;4935847;29;20451;-83
2021/04/12 14:46:08;;;;;;;7.20;6.90;;;13.20;75.60;;;;;;4937390;29;20415;-83
2021/04/12 14:49:06;;;;;;;7.33;6.90;;;12.50;79.70;;;;;;4944606;29;20415;-83
2021/04/12 14:51:56;;;;;;;8.30;7.90;;;11.80;78.70;;;;;;4937244;29;20524;-82
2021/04/12 14:54:35;;;;;;;7.83;7.43;;;11.80;85.50;;;;;;4956267;29;20539;-81
2021/04/12 14:57:03;;;;;;;7.20;6.80;;;12.30;83.30;;;;;;4943139;29;20452;-80